Nearby METAR Reports

 

KDPA - Chicago/Dupage, Illinois, USA
Distance from station: NW 11mi, 18km
Updated: Tue, 24-May-2022 1:52pm CDT
Mostly cloudy
Mostly cloudy
 Wind from E
Wind: E 14 mph , 22 km/h, Gust: 25 mph , 41 km/h
Temperature: 64°F , 18°C
Dew Point: 43°F , 6°C
Humidity: 46%
Barometer: 30.18 inHg , 1022 hPa
Clouds: Mostly cloudy
Visibility: 10 miles , 16 km
Cloud details: Mostly cloudy 8500 ft
2022/05/24 18:52 KDPA 241852Z 08012G22KT 10SM BKN085 18/06 A3018 RMK AO2 SLP220 T01780056
KLOT - Romeoville/Chi, Illinois, USA
Distance from station: S 13mi, 21km
Updated: Tue, 24-May-2022 2:10pm CDT
Clear
Clear
 Wind from ENE
Wind: ENE 12 mph , 19 km/h, Gust: 18 mph , 30 km/h
Temperature: 66°F , 19°C
Dew Point: 48°F , 9°C
Humidity: 52%
Barometer: 30.16 inHg , 1021.3 hPa
Clouds: Clear
Visibility: 10 miles , 16 km
2022/05/24 19:10 KLOT 241910Z AUTO 06010G16KT 040V100 10SM CLR 19/09 A3016 RMK AO2 T01860086
 
KORD - Chicago O'Hare, Illinois, USA
Distance from station: NE 17mi, 27km
Updated: Tue, 24-May-2022 1:51pm CDT
Mostly cloudy
Mostly cloudy
 Wind from ENE
Wind: ENE 15 mph , 24 km/h, Gust: 23 mph , 37 km/h
Temperature: 64°F , 18°C
Dew Point: 43°F , 6°C
Humidity: 46%
Barometer: 30.20 inHg , 1022.7 hPa
Clouds: Mostly cloudy
Visibility: 10 miles , 16 km
Cloud details: Few Clouds 9000 ft
Mostly cloudy 13000 ft
2022/05/24 18:51 KORD 241851Z 06013G20KT 10SM FEW090 BKN130 18/06 A3020 RMK AO2 SLP226 T01830056
KARR - Chicago/Aurora, Illinois, USA
Distance from station: W 19mi, 30km
Updated: Tue, 24-May-2022 1:52pm CDT
Mostly cloudy
Mostly cloudy
 Wind from ENE
Wind: ENE 17 mph , 28 km/h
Temperature: 66°F , 19°C
Dew Point: 43°F , 6°C
Humidity: 43%
Barometer: 30.16 inHg , 1021.3 hPa
Clouds: Mostly cloudy
Visibility: 10 miles , 16 km
Cloud details: Mostly cloudy 8500 ft
2022/05/24 18:52 KARR 241852Z 07015KT 10SM BKN085 19/06 A3016 RMK AO2 SLP214 T01940061
 
KJOT - Joliet, Illinois, USA
Distance from station: S 19mi, 31km
Updated: Tue, 24-May-2022 2:15pm CDT
Partly cloudy
Partly cloudy
 Wind from NE
Wind: NE 10 mph , 17 km/h, Gust: 17 mph , 28 km/h
Temperature: 70°F , 21°C
Dew Point: 48°F , 9°C
Humidity: 46%
Barometer: 30.16 inHg , 1021.3 hPa
Clouds: Partly cloudy
Visibility: 10 miles , 16 km
Cloud details: Partly cloudy 11000 ft
2022/05/24 19:15 KJOT 241915Z AUTO 05009G15KT 10SM SCT110 21/09 A3016 RMK AO2 T02050088
KMDW - Chicago, Illinois, USA
Distance from station: E 19mi, 31km
Updated: Tue, 24-May-2022 1:53pm CDT
Mostly cloudy
Mostly cloudy
 Wind from NE
Wind: NE 13 mph , 20 km/h, Gust: 24 mph , 39 km/h
Temperature: 66°F , 19°C
Dew Point: 41°F , 5°C
Humidity: 40%
Barometer: 30.20 inHg , 1022.7 hPa
Clouds: Mostly cloudy
Visibility: 10 miles , 16 km
Cloud details: Few Clouds 9000 ft
Mostly cloudy 13000 ft
2022/05/24 18:53 KMDW 241853Z 05011G21KT 10SM FEW090 BKN130 19/05 A3020 RMK AO2 SLP224 T01890050
 
KPWK - Palwaukee, Illinois, USA
Distance from station: NNE 25mi, 41km
Updated: Tue, 24-May-2022 1:52pm CDT
Clear
Clear
 Wind from ENE
Wind: ENE 13 mph , 20 km/h, Gust: 22 mph , 35 km/h
Temperature: 63°F , 17°C
Dew Point: 43°F , 6°C
Humidity: 49%
Barometer: 30.23 inHg , 1023.7 hPa
Clouds: Clear
Visibility: 10 miles , 16 km
2022/05/24 18:52 KPWK 241852Z 06011G19KT 10SM CLR 17/06 A3023 RMK AO2 SLP236 T01720056
KC09 - Morris-Washburn, Illinois, USA
Distance from station: SSW 29mi, 47km
Updated: Tue, 24-May-2022 2:15pm CDT
Clear
Clear
 Wind from E
Wind: E 16 mph , 26 km/h, Gust: 21 mph , 33 km/h
Temperature: 70°F , 21°C
Dew Point: 45°F , 7°C
Humidity: 40%
Barometer: 30.14 inHg , 1020.7 hPa
Clouds: Clear
Visibility: 10 miles , 16 km
2022/05/24 19:15 KC09 241915Z AUTO 10014G18KT 10SM CLR 21/07 A3014 RMK AO2 T02070072
 
KDKB - De Kalb, Illinois, USA
Distance from station: WNW 31mi, 50km
Updated: Tue, 24-May-2022 2:15pm CDT
Overcast
Overcast
 Wind from E
Wind: E 16 mph , 26 km/h, Gust: 25 mph , 41 km/h
Temperature: 66°F , 19°C
Dew Point: 41°F , 5°C
Humidity: 40%
Barometer: 30.17 inHg , 1021.7 hPa
Clouds: Overcast
Visibility: 10 miles , 16 km
Cloud details: Partly cloudy 8000 ft
Overcast 11000 ft
2022/05/24 19:15 KDKB 241915Z AUTO 09014G22KT 10SM SCT080 OVC110 19/05 A3017 RMK AO2 T01920054
KIGQ - Chicago/Lansing, Illinois, USA
Distance from station: ESE 35mi, 57km
Updated: Tue, 24-May-2022 2:15pm CDT
Clear
Clear
 Wind from NE
Wind: NE 13 mph , 20 km/h, Gust: 18 mph , 30 km/h
Temperature: 64°F , 18°C
Dew Point: 45°F , 7°C
Humidity: 49%
Barometer: 30.18 inHg , 1022 hPa
Clouds: Clear
Visibility: 10 miles , 16 km
2022/05/24 19:15 KIGQ 241915Z AUTO 05011G16KT 10SM CLR 18/07 A3018 RMK AO2 T01840071
 
KGYY - Gary Regional, Indiana, USA
Distance from station: ESE 38mi, 62km
Updated: Tue, 24-May-2022 1:45pm CDT
Clear
Clear
 Wind from NNE
Wind: NNE 12 mph , 19 km/h
Temperature: 63°F , 17°C
Dew Point: 45°F , 7°C
Humidity: 52%
Barometer: 30.19 inHg , 1022.4 hPa
Clouds: Clear
Visibility: 10 miles , 16 km
2022/05/24 18:45 KGYY 241845Z 03010KT 10SM CLR 17/07 A3019
KUGN - Waukegan, Illinois, USA
Distance from station: NNE 45mi, 73km
Updated: Tue, 24-May-2022 1:55pm CDT
Clear
Clear
 Wind from ENE
Wind: ENE 10 mph , 17 km/h
Temperature: 59°F , 15°C
Dew Point: 45°F , 7°C
Humidity: 59%
Barometer: 30.22 inHg , 1023.4 hPa
Clouds: Clear
Visibility: 10 miles , 16 km
2022/05/24 18:55 KUGN 241855Z 07009KT 10SM CLR 15/07 A3022 RMK AO2 SLP236 T01500067
 
KRPJ - Rochelle/Koritz, Illinois, USA
Distance from station: W 50mi, 80km
Updated: Tue, 24-May-2022 2:15pm CDT
Clear
Clear
 Wind from ESE
Wind: ESE 15 mph , 24 km/h, Gust: 21 mph , 33 km/h
Temperature: 68°F , 20°C
Dew Point: 43°F , 6°C
Humidity: 40%
Barometer: 30.16 inHg , 1021.3 hPa
Clouds: Clear
Visibility: 10 miles , 16 km
2022/05/24 19:15 KRPJ 241915Z AUTO 11013G18KT 10SM CLR 20/06 A3016 RMK AO2 T02000060 TSNO